sensor_id;sensor_type;location;lat;lon;timestamp;temperature;humidity
5459;DHT22;2752;49.992;8.422;2023-08-21T00:00:28;23.80;1.00
5459;DHT22;2752;49.992;8.422;2023-08-21T00:02:56;24.00;1.00
5459;DHT22;2752;49.992;8.422;2023-08-21T00:05:23;23.90;1.00
5459;DHT22;2752;49.992;8.422;2023-08-21T00:07:50;23.70;1.00
5459;DHT22;2752;49.992;8.422;2023-08-21T00:10:17;23.60;1.00
5459;DHT22;2752;49.992;8.422;2023-08-21T00:12:43;23.60;1.00
5459;DHT22;2752;49.992;8.422;2023-08-21T00:15:10;23.60;1.00
5459;DHT22;2752;49.992;8.422;2023-08-21T00:17:37;23.50;1.00
5459;DHT22;2752;49.992;8.422;2023-08-21T00:20:06;23.40;1.00
5459;DHT22;2752;49.992;8.422;2023-08-21T00:22:34;23.40;1.00
5459;DHT22;2752;49.992;8.422;2023-08-21T00:25:01;23.30;1.00
5459;DHT22;2752;49.992;8.422;2023-08-21T00:27:28;23.30;1.00
5459;DHT22;2752;49.992;8.422;2023-08-21T00:29:55;23.40;1.00
5459;DHT22;2752;49.992;8.422;2023-08-21T00:32:21;23.50;1.00
5459;DHT22;2752;49.992;8.422;2023-08-21T00:34:48;23.40;1.00
5459;DHT22;2752;49.992;8.422;2023-08-21T00:37:16;23.30;1.00
5459;DHT22;2752;49.992;8.422;2023-08-21T00:39:43;23.20;1.00
5459;DHT22;2752;49.992;8.422;2023-08-21T00:42:09;23.20;1.00
5459;DHT22;2752;49.992;8.422;2023-08-21T00:44:36;23.10;2.90
5459;DHT22;2752;49.992;8.422;2023-08-21T00:47:03;23.00;4.90
5459;DHT22;2752;49.992;8.422;2023-08-21T00:49:30;23.00;6.80
5459;DHT22;2752;49.992;8.422;2023-08-21T00:51:57;23.00;7.10
5459;DHT22;2752;49.992;8.422;2023-08-21T00:54:25;22.90;7.60
5459;DHT22;2752;49.992;8.422;2023-08-21T00:56:52;23.00;8.10
5459;DHT22;2752;49.992;8.422;2023-08-21T00:59:19;23.00;8.00
5459;DHT22;2752;49.992;8.422;2023-08-21T01:01:46;22.90;8.10
5459;DHT22;2752;49.992;8.422;2023-08-21T01:04:12;22.90;8.10
5459;DHT22;2752;49.992;8.422;2023-08-21T01:06:39;22.90;7.10
5459;DHT22;2752;49.992;8.422;2023-08-21T01:09:11;22.90;8.00
5459;DHT22;2752;49.992;8.422;2023-08-21T01:11:46;22.80;8.00
5459;DHT22;2752;49.992;8.422;2023-08-21T01:14:26;22.70;8.00
5459;DHT22;2752;49.992;8.422;2023-08-21T01:16:59;22.70;8.00
5459;DHT22;2752;49.992;8.422;2023-08-21T01:19:31;22.60;8.90
5459;DHT22;2752;49.992;8.422;2023-08-21T01:21:58;22.60;9.10
5459;DHT22;2752;49.992;8.422;2023-08-21T01:24:26;22.60;10.20
5459;DHT22;2752;49.992;8.422;2023-08-21T01:26:53;22.60;11.40
5459;DHT22;2752;49.992;8.422;2023-08-21T01:29:20;22.60;11.80
5459;DHT22;2752;49.992;8.422;2023-08-21T01:31:49;22.60;12.40
5459;DHT22;2752;49.992;8.422;2023-08-21T01:34:17;22.50;13.70
5459;DHT22;2752;49.992;8.422;2023-08-21T01:36:44;22.50;14.40
5459;DHT22;2752;49.992;8.422;2023-08-21T01:39:11;22.50;15.80
5459;DHT22;2752;49.992;8.422;2023-08-21T01:41:41;22.50;15.70
5459;DHT22;2752;49.992;8.422;2023-08-21T01:44:08;22.60;14.20
5459;DHT22;2752;49.992;8.422;2023-08-21T01:46:35;22.50;14.10
5459;DHT22;2752;49.992;8.422;2023-08-21T01:51:29;22.50;17.70
5459;DHT22;2752;49.992;8.422;2023-08-21T01:53:55;22.50;17.20
5459;DHT22;2752;49.992;8.422;2023-08-21T01:56:22;22.40;18.10
5459;DHT22;2752;49.992;8.422;2023-08-21T01:58:50;22.40;18.70
5459;DHT22;2752;49.992;8.422;2023-08-21T02:01:17;22.40;19.10
5459;DHT22;2752;49.992;8.422;2023-08-21T02:03:45;22.50;18.60
5459;DHT22;2752;49.992;8.422;2023-08-21T02:06:12;22.50;15.90
5459;DHT22;2752;49.992;8.422;2023-08-21T02:08:39;22.40;16.90
5459;DHT22;2752;49.992;8.422;2023-08-21T02:11:05;22.40;18.10
5459;DHT22;2752;49.992;8.422;2023-08-21T02:13:32;22.30;19.40
5459;DHT22;2752;49.992;8.422;2023-08-21T02:16:00;22.30;20.10
5459;DHT22;2752;49.992;8.422;2023-08-21T02:18:27;22.30;19.80
5459;DHT22;2752;49.992;8.422;2023-08-21T02:20:54;22.30;20.10
5459;DHT22;2752;49.992;8.422;2023-08-21T02:23:20;22.20;19.90
5459;DHT22;2752;49.992;8.422;2023-08-21T02:25:47;22.30;21.20
5459;DHT22;2752;49.992;8.422;2023-08-21T02:28:14;22.20;21.70
5459;DHT22;2752;49.992;8.422;2023-08-21T02:30:41;22.20;23.70
5459;DHT22;2752;49.992;8.422;2023-08-21T02:33:09;22.30;22.50
5459;DHT22;2752;49.992;8.422;2023-08-21T02:35:36;22.30;21.00
5459;DHT22;2752;49.992;8.422;2023-08-21T02:38:03;22.30;20.10
5459;DHT22;2752;49.992;8.422;2023-08-21T02:40:30;22.30;20.10
5459;DHT22;2752;49.992;8.422;2023-08-21T02:42:57;22.30;20.10
5459;DHT22;2752;49.992;8.422;2023-08-21T02:45:23;22.40;20.10
5459;DHT22;2752;49.992;8.422;2023-08-21T02:47:50;22.40;20.10
5459;DHT22;2752;49.992;8.422;2023-08-21T02:50:18;22.40;18.80
5459;DHT22;2752;49.992;8.422;2023-08-21T02:52:45;22.40;19.10
5459;DHT22;2752;49.992;8.422;2023-08-21T02:55:11;22.30;19.90
5459;DHT22;2752;49.992;8.422;2023-08-21T02:57:39;22.30;21.40
5459;DHT22;2752;49.992;8.422;2023-08-21T03:00:07;22.30;20.10
5459;DHT22;2752;49.992;8.422;2023-08-21T03:02:34;22.40;20.50
5459;DHT22;2752;49.992;8.422;2023-08-21T03:07:29;22.60;17.90
5459;DHT22;2752;49.992;8.422;2023-08-21T03:09:55;22.70;13.20
5459;DHT22;2752;49.992;8.422;2023-08-21T03:12:22;22.70;13.20
5459;DHT22;2752;49.992;8.422;2023-08-21T03:14:49;22.70;13.40
5459;DHT22;2752;49.992;8.422;2023-08-21T03:17:15;22.60;13.50
5459;DHT22;2752;49.992;8.422;2023-08-21T03:19:42;22.50;14.30
5459;DHT22;2752;49.992;8.422;2023-08-21T03:24:37;22.20;19.40
5459;DHT22;2752;49.992;8.422;2023-08-21T03:27:04;22.10;21.90
5459;DHT22;2752;49.992;8.422;2023-08-21T03:29:30;22.10;23.90
5459;DHT22;2752;49.992;8.422;2023-08-21T03:31:57;22.00;27.00
5459;DHT22;2752;49.992;8.422;2023-08-21T03:34:24;22.00;27.10
5459;DHT22;2752;49.992;8.422;2023-08-21T03:36:51;22.00;30.00
5459;DHT22;2752;49.992;8.422;2023-08-21T03:39:18;22.00;33.20
5459;DHT22;2752;49.992;8.422;2023-08-21T03:41:46;22.00;30.50
5459;DHT22;2752;49.992;8.422;2023-08-21T03:44:13;21.90;31.80
5459;DHT22;2752;49.992;8.422;2023-08-21T03:46:40;21.90;33.50
5459;DHT22;2752;49.992;8.422;2023-08-21T03:49:06;21.90;34.60
5459;DHT22;2752;49.992;8.422;2023-08-21T03:51:33;21.90;34.60
5459;DHT22;2752;49.992;8.422;2023-08-21T03:54:00;21.90;33.30
5459;DHT22;2752;49.992;8.422;2023-08-21T03:56:26;21.90;34.60
5459;DHT22;2752;49.992;8.422;2023-08-21T03:58:54;21.90;34.60
5459;DHT22;2752;49.992;8.422;2023-08-21T04:01:21;21.80;35.20
5459;DHT22;2752;49.992;8.422;2023-08-21T04:03:48;21.70;37.10
5459;DHT22;2752;49.992;8.422;2023-08-21T04:06:14;21.70;38.60
5459;DHT22;2752;49.992;8.422;2023-08-21T04:08:41;21.60;39.40
5459;DHT22;2752;49.992;8.422;2023-08-21T04:11:07;21.50;40.50
5459;DHT22;2752;49.992;8.422;2023-08-21T04:13:34;21.60;41.90
5459;DHT22;2752;49.992;8.422;2023-08-21T04:16:02;21.60;43.50
5459;DHT22;2752;49.992;8.422;2023-08-21T04:18:30;21.50;44.70
5459;DHT22;2752;49.992;8.422;2023-08-21T04:20:56;21.50;46.20
5459;DHT22;2752;49.992;8.422;2023-08-21T04:23:23;21.50;47.30
5459;DHT22;2752;49.992;8.422;2023-08-21T04:25:49;21.50;50.30
5459;DHT22;2752;49.992;8.422;2023-08-21T04:28:16;21.40;49.40
5459;DHT22;2752;49.992;8.422;2023-08-21T04:30:43;21.50;49.50
5459;DHT22;2752;49.992;8.422;2023-08-21T04:33:11;21.50;49.50
5459;DHT22;2752;49.992;8.422;2023-08-21T04:35:38;21.50;49.60
5459;DHT22;2752;49.992;8.422;2023-08-21T04:38:05;21.50;50.60
5459;DHT22;2752;49.992;8.422;2023-08-21T04:40:32;21.50;52.10
5459;DHT22;2752;49.992;8.422;2023-08-21T04:42:59;21.50;52.70
5459;DHT22;2752;49.992;8.422;2023-08-21T04:45:27;21.40;53.50
5459;DHT22;2752;49.992;8.422;2023-08-21T04:47:53;21.40;55.00
5459;DHT22;2752;49.992;8.422;2023-08-21T04:50:21;21.40;56.10
5459;DHT22;2752;49.992;8.422;2023-08-21T04:52:48;21.40;56.70
5459;DHT22;2752;49.992;8.422;2023-08-21T04:55:15;21.50;56.80
5459;DHT22;2752;49.992;8.422;2023-08-21T04:57:42;21.60;55.50
5459;DHT22;2752;49.992;8.422;2023-08-21T05:00:09;21.60;52.00
5459;DHT22;2752;49.992;8.422;2023-08-21T05:02:36;21.60;52.30
5459;DHT22;2752;49.992;8.422;2023-08-21T05:05:03;21.60;52.30
5459;DHT22;2752;49.992;8.422;2023-08-21T05:07:32;21.60;52.70
5459;DHT22;2752;49.992;8.422;2023-08-21T05:09:59;21.60;51.60
5459;DHT22;2752;49.992;8.422;2023-08-21T05:12:26;21.70;48.50
5459;DHT22;2752;49.992;8.422;2023-08-21T05:14:53;21.70;47.20
5459;DHT22;2752;49.992;8.422;2023-08-21T05:17:20;21.90;42.40
5459;DHT22;2752;49.992;8.422;2023-08-21T05:19:46;22.00;38.50
5459;DHT22;2752;49.992;8.422;2023-08-21T05:22:13;22.10;35.10
5459;DHT22;2752;49.992;8.422;2023-08-21T05:24:41;22.30;32.50
5459;DHT22;2752;49.992;8.422;2023-08-21T05:27:07;22.20;30.70
5459;DHT22;2752;49.992;8.422;2023-08-21T05:29:34;22.20;32.10
5459;DHT22;2752;49.992;8.422;2023-08-21T05:32:01;22.30;33.20
5459;DHT22;2752;49.992;8.422;2023-08-21T05:34:27;22.30;32.50
5459;DHT22;2752;49.992;8.422;2023-08-21T05:36:54;22.40;31.50
5459;DHT22;2752;49.992;8.422;2023-08-21T05:39:21;22.40;31.00
5459;DHT22;2752;49.992;8.422;2023-08-21T05:41:49;22.40;30.30
5459;DHT22;2752;49.992;8.422;2023-08-21T05:44:15;22.50;29.40
5459;DHT22;2752;49.992;8.422;2023-08-21T05:46:42;22.60;28.60
5459;DHT22;2752;49.992;8.422;2023-08-21T05:49:09;22.60;27.10
5459;DHT22;2752;49.992;8.422;2023-08-21T05:51:35;22.80;22.30
5459;DHT22;2752;49.992;8.422;2023-08-21T05:56:29;23.00;17.60
5459;DHT22;2752;49.992;8.422;2023-08-21T05:58:57;23.00;15.10
5459;DHT22;2752;49.992;8.422;2023-08-21T06:01:24;23.10;14.40
5459;DHT22;2752;49.992;8.422;2023-08-21T06:03:50;23.20;9.60
5459;DHT22;2752;49.992;8.422;2023-08-21T06:06:17;23.20;8.10
5459;DHT22;2752;49.992;8.422;2023-08-21T06:08:43;23.40;3.70
5459;DHT22;2752;49.992;8.422;2023-08-21T06:11:10;23.50;1.60
5459;DHT22;2752;49.992;8.422;2023-08-21T06:13:37;23.50;1.20
5459;DHT22;2752;49.992;8.422;2023-08-21T06:16:05;23.40;1.80
5459;DHT22;2752;49.992;8.422;2023-08-21T06:18:31;23.50;1.30
5459;DHT22;2752;49.992;8.422;2023-08-21T06:20:58;23.60;1.00
5459;DHT22;2752;49.992;8.422;2023-08-21T06:23:25;23.70;1.00
5459;DHT22;2752;49.992;8.422;2023-08-21T06:25:51;23.80;1.00
5459;DHT22;2752;49.992;8.422;2023-08-21T06:28:18;23.90;1.00
5459;DHT22;2752;49.992;8.422;2023-08-21T06:30:45;23.90;1.00
5459;DHT22;2752;49.992;8.422;2023-08-21T06:33:13;23.90;1.00
5459;DHT22;2752;49.992;8.422;2023-08-21T06:35:39;23.80;1.00
5459;DHT22;2752;49.992;8.422;2023-08-21T06:38:06;23.90;1.00
5459;DHT22;2752;49.992;8.422;2023-08-21T06:40:33;24.00;1.00
5459;DHT22;2752;49.992;8.422;2023-08-21T06:42:59;24.10;1.00
5459;DHT22;2752;49.992;8.422;2023-08-21T06:45:26;24.20;1.00
5459;DHT22;2752;49.992;8.422;2023-08-21T06:47:55;24.40;1.00
5459;DHT22;2752;49.992;8.422;2023-08-21T06:50:24;24.50;1.00
5459;DHT22;2752;49.992;8.422;2023-08-21T06:52:50;24.60;1.00
5459;DHT22;2752;49.992;8.422;2023-08-21T06:55:17;24.70;1.00
5459;DHT22;2752;49.992;8.422;2023-08-21T06:57:44;24.80;1.00
5459;DHT22;2752;49.992;8.422;2023-08-21T07:00:11;24.90;1.00
5459;DHT22;2752;49.992;8.422;2023-08-21T07:02:38;25.00;1.00
5459;DHT22;2752;49.992;8.422;2023-08-21T07:05:05;25.20;1.00
5459;DHT22;2752;49.992;8.422;2023-08-21T07:07:33;25.40;1.00
5459;DHT22;2752;49.992;8.422;2023-08-21T07:10:00;25.40;1.00
5459;DHT22;2752;49.992;8.422;2023-08-21T07:12:28;25.40;1.00
5459;DHT22;2752;49.992;8.422;2023-08-21T07:14:55;25.40;1.00
5459;DHT22;2752;49.992;8.422;2023-08-21T07:17:22;25.60;1.00
5459;DHT22;2752;49.992;8.422;2023-08-21T07:19:48;25.60;1.00
5459;DHT22;2752;49.992;8.422;2023-08-21T07:22:18;25.80;1.00
5459;DHT22;2752;49.992;8.422;2023-08-21T07:24:46;25.80;1.00
5459;DHT22;2752;49.992;8.422;2023-08-21T07:27:13;26.00;1.00
5459;DHT22;2752;49.992;8.422;2023-08-21T07:29:40;26.10;1.00
5459;DHT22;2752;49.992;8.422;2023-08-21T07:32:06;26.30;1.00
5459;DHT22;2752;49.992;8.422;2023-08-21T07:34:33;26.30;1.00
5459;DHT22;2752;49.992;8.422;2023-08-21T07:37:00;26.20;1.00
5459;DHT22;2752;49.992;8.422;2023-08-21T07:39:26;26.30;1.00
5459;DHT22;2752;49.992;8.422;2023-08-21T07:41:54;26.20;1.00
5459;DHT22;2752;49.992;8.422;2023-08-21T07:44:21;26.30;1.00
5459;DHT22;2752;49.992;8.422;2023-08-21T07:46:48;26.40;1.00
5459;DHT22;2752;49.992;8.422;2023-08-21T07:49:14;26.50;1.00
5459;DHT22;2752;49.992;8.422;2023-08-21T07:54:08;26.60;1.00
5459;DHT22;2752;49.992;8.422;2023-08-21T07:56:35;26.70;1.00
5459;DHT22;2752;49.992;8.422;2023-08-21T07:59:03;26.70;1.00
5459;DHT22;2752;49.992;8.422;2023-08-21T08:01:30;26.70;1.00
5459;DHT22;2752;49.992;8.422;2023-08-21T08:03:58;26.90;1.00
5459;DHT22;2752;49.992;8.422;2023-08-21T08:06:24;27.00;1.00
5459;DHT22;2752;49.992;8.422;2023-08-21T08:08:51;27.00;1.00
5459;DHT22;2752;49.992;8.422;2023-08-21T08:11:18;27.10;1.00
5459;DHT22;2752;49.992;8.422;2023-08-21T08:13:45;27.10;1.00
5459;DHT22;2752;49.992;8.422;2023-08-21T08:16:12;27.00;1.00
5459;DHT22;2752;49.992;8.422;2023-08-21T08:18:39;27.30;1.00
5459;DHT22;2752;49.992;8.422;2023-08-21T08:21:06;27.40;1.00
5459;DHT22;2752;49.992;8.422;2023-08-21T08:23:32;27.50;1.00
5459;DHT22;2752;49.992;8.422;2023-08-21T08:25:59;27.50;1.00
5459;DHT22;2752;49.992;8.422;2023-08-21T08:28:26;27.70;1.00
5459;DHT22;2752;49.992;8.422;2023-08-21T08:30:52;28.00;1.00
5459;DHT22;2752;49.992;8.422;2023-08-21T08:33:21;28.20;1.00
5459;DHT22;2752;49.992;8.422;2023-08-21T08:35:47;28.20;1.00
5459;DHT22;2752;49.992;8.422;2023-08-21T08:40:44;28.00;1.00
5459;DHT22;2752;49.992;8.422;2023-08-21T08:43:11;28.30;1.00
5459;DHT22;2752;49.992;8.422;2023-08-21T08:45:40;28.40;1.00
5459;DHT22;2752;49.992;8.422;2023-08-21T08:48:07;28.40;1.00
5459;DHT22;2752;49.992;8.422;2023-08-21T08:50:36;28.30;1.00
5459;DHT22;2752;49.992;8.422;2023-08-21T08:53:04;28.40;1.00
5459;DHT22;2752;49.992;8.422;2023-08-21T08:55:31;28.50;1.00
5459;DHT22;2752;49.992;8.422;2023-08-21T08:57:58;28.70;1.00
5459;DHT22;2752;49.992;8.422;2023-08-21T09:00:26;28.90;1.00
5459;DHT22;2752;49.992;8.422;2023-08-21T09:02:54;28.90;1.00
5459;DHT22;2752;49.992;8.422;2023-08-21T09:05:21;28.90;1.00
5459;DHT22;2752;49.992;8.422;2023-08-21T09:08:02;29.10;1.00
5459;DHT22;2752;49.992;8.422;2023-08-21T09:10:29;29.20;1.00
5459;DHT22;2752;49.992;8.422;2023-08-21T09:17:55;29.40;1.00
5459;DHT22;2752;49.992;8.422;2023-08-21T09:20:22;29.40;1.00
5459;DHT22;2752;49.992;8.422;2023-08-21T09:22:53;29.60;1.00
5459;DHT22;2752;49.992;8.422;2023-08-21T09:25:23;29.60;1.00
5459;DHT22;2752;49.992;8.422;2023-08-21T09:27:52;29.80;1.00
5459;DHT22;2752;49.992;8.422;2023-08-21T09:30:19;30.00;1.00
5459;DHT22;2752;49.992;8.422;2023-08-21T09:32:53;30.00;1.00
5459;DHT22;2752;49.992;8.422;2023-08-21T09:35:21;30.20;1.00
5459;DHT22;2752;49.992;8.422;2023-08-21T09:37:48;30.30;1.00
5459;DHT22;2752;49.992;8.422;2023-08-21T09:42:43;30.60;1.00
5459;DHT22;2752;49.992;8.422;2023-08-21T09:45:10;30.60;1.00
5459;DHT22;2752;49.992;8.422;2023-08-21T09:47:37;30.50;1.00
5459;DHT22;2752;49.992;8.422;2023-08-21T09:50:05;30.50;1.00
5459;DHT22;2752;49.992;8.422;2023-08-21T09:52:32;30.60;1.00
5459;DHT22;2752;49.992;8.422;2023-08-21T09:55:01;30.60;1.00
5459;DHT22;2752;49.992;8.422;2023-08-21T09:57:31;30.70;1.00
5459;DHT22;2752;49.992;8.422;2023-08-21T10:00:02;30.80;1.00
5459;DHT22;2752;49.992;8.422;2023-08-21T10:05:11;30.90;1.00
5459;DHT22;2752;49.992;8.422;2023-08-21T10:20:02;31.40;1.00
5459;DHT22;2752;49.992;8.422;2023-08-21T10:22:38;31.30;1.00
5459;DHT22;2752;49.992;8.422;2023-08-21T10:25:14;31.30;1.00
5459;DHT22;2752;49.992;8.422;2023-08-21T10:27:41;31.30;1.00
5459;DHT22;2752;49.992;8.422;2023-08-21T10:30:14;31.40;1.00
5459;DHT22;2752;49.992;8.422;2023-08-21T10:35:14;31.60;1.00
5459;DHT22;2752;49.992;8.422;2023-08-21T10:38:11;31.40;1.00
5459;DHT22;2752;49.992;8.422;2023-08-21T10:40:39;31.50;1.00
5459;DHT22;2752;49.992;8.422;2023-08-21T10:45:54;31.40;1.00
5459;DHT22;2752;49.992;8.422;2023-08-21T10:48:21;31.00;1.00
5459;DHT22;2752;49.992;8.422;2023-08-21T10:50:48;31.30;1.00
5459;DHT22;2752;49.992;8.422;2023-08-21T10:53:15;31.40;1.00
5459;DHT22;2752;49.992;8.422;2023-08-21T10:55:42;31.30;1.00
5459;DHT22;2752;49.992;8.422;2023-08-21T10:58:09;31.30;1.00
5459;DHT22;2752;49.992;8.422;2023-08-21T11:00:37;31.40;1.00
5459;DHT22;2752;49.992;8.422;2023-08-21T11:03:05;31.60;1.00
5459;DHT22;2752;49.992;8.422;2023-08-21T11:05:31;31.90;1.00
5459;DHT22;2752;49.992;8.422;2023-08-21T11:07:58;32.10;1.00
5459;DHT22;2752;49.992;8.422;2023-08-21T11:10:29;32.30;1.00
5459;DHT22;2752;49.992;8.422;2023-08-21T11:12:58;32.40;1.00
5459;DHT22;2752;49.992;8.422;2023-08-21T11:15:27;32.50;1.00
5459;DHT22;2752;49.992;8.422;2023-08-21T11:17:55;32.60;1.00
5459;DHT22;2752;49.992;8.422;2023-08-21T11:20:27;32.60;1.00
5459;DHT22;2752;49.992;8.422;2023-08-21T11:22:56;32.50;1.00
5459;DHT22;2752;49.992;8.422;2023-08-21T11:25:24;32.50;1.00
5459;DHT22;2752;49.992;8.422;2023-08-21T11:27:50;32.60;1.00
5459;DHT22;2752;49.992;8.422;2023-08-21T11:30:19;32.50;1.00
5459;DHT22;2752;49.992;8.422;2023-08-21T11:32:48;32.60;1.00
5459;DHT22;2752;49.992;8.422;2023-08-21T11:35:16;32.70;1.00
5459;DHT22;2752;49.992;8.422;2023-08-21T11:37:45;32.90;1.00
5459;DHT22;2752;49.992;8.422;2023-08-21T11:40:13;33.00;1.00
5459;DHT22;2752;49.992;8.422;2023-08-21T11:42:39;33.10;1.00
5459;DHT22;2752;49.992;8.422;2023-08-21T11:45:07;33.20;1.00
5459;DHT22;2752;49.992;8.422;2023-08-21T11:47:36;33.10;1.00
5459;DHT22;2752;49.992;8.422;2023-08-21T11:50:03;33.10;1.00
5459;DHT22;2752;49.992;8.422;2023-08-21T11:52:31;33.20;1.00
5459;DHT22;2752;49.992;8.422;2023-08-21T11:54:59;33.30;1.00
5459;DHT22;2752;49.992;8.422;2023-08-21T11:57:26;33.10;1.00
5459;DHT22;2752;49.992;8.422;2023-08-21T11:59:55;33.00;1.00
5459;DHT22;2752;49.992;8.422;2023-08-21T12:02:23;32.90;1.00
5459;DHT22;2752;49.992;8.422;2023-08-21T12:04:52;32.90;1.00
5459;DHT22;2752;49.992;8.422;2023-08-21T12:07:20;33.00;1.00
5459;DHT22;2752;49.992;8.422;2023-08-21T12:09:47;33.20;1.00
5459;DHT22;2752;49.992;8.422;2023-08-21T12:12:16;33.30;1.00
5459;DHT22;2752;49.992;8.422;2023-08-21T12:14:42;33.20;1.00
5459;DHT22;2752;49.992;8.422;2023-08-21T12:17:09;33.20;1.00
5459;DHT22;2752;49.992;8.422;2023-08-21T12:19:36;33.30;1.00
5459;DHT22;2752;49.992;8.422;2023-08-21T12:22:04;33.30;1.00
5459;DHT22;2752;49.992;8.422;2023-08-21T12:24:31;33.60;1.00
5459;DHT22;2752;49.992;8.422;2023-08-21T12:26:58;33.80;1.00
5459;DHT22;2752;49.992;8.422;2023-08-21T12:29:26;33.80;1.00
5459;DHT22;2752;49.992;8.422;2023-08-21T12:31:53;33.90;1.00
5459;DHT22;2752;49.992;8.422;2023-08-21T12:34:20;33.60;1.00
5459;DHT22;2752;49.992;8.422;2023-08-21T12:36:46;33.50;1.00
5459;DHT22;2752;49.992;8.422;2023-08-21T12:39:13;33.60;1.00
5459;DHT22;2752;49.992;8.422;2023-08-21T12:41:41;33.80;1.00
5459;DHT22;2752;49.992;8.422;2023-08-21T12:44:08;33.80;1.00
5459;DHT22;2752;49.992;8.422;2023-08-21T12:46:36;33.90;1.00
5459;DHT22;2752;49.992;8.422;2023-08-21T12:49:03;34.10;1.00
5459;DHT22;2752;49.992;8.422;2023-08-21T12:51:30;34.40;1.00
5459;DHT22;2752;49.992;8.422;2023-08-21T12:56:24;34.50;1.00
5459;DHT22;2752;49.992;8.422;2023-08-21T12:58:51;34.70;1.00
5459;DHT22;2752;49.992;8.422;2023-08-21T13:01:18;34.50;1.00
5459;DHT22;2752;49.992;8.422;2023-08-21T13:06:13;34.10;1.00
5459;DHT22;2752;49.992;8.422;2023-08-21T13:08:40;34.20;1.00
5459;DHT22;2752;49.992;8.422;2023-08-21T13:11:07;34.30;1.00
5459;DHT22;2752;49.992;8.422;2023-08-21T13:13:35;34.30;1.00
5459;DHT22;2752;49.992;8.422;2023-08-21T13:16:02;34.30;1.00
5459;DHT22;2752;49.992;8.422;2023-08-21T13:18:29;34.20;1.00
5459;DHT22;2752;49.992;8.422;2023-08-21T13:20:56;34.30;1.00
5459;DHT22;2752;49.992;8.422;2023-08-21T13:23:23;34.40;1.00
5459;DHT22;2752;49.992;8.422;2023-08-21T13:25:50;34.30;1.00
5459;DHT22;2752;49.992;8.422;2023-08-21T13:28:16;34.20;1.00
5459;DHT22;2752;49.992;8.422;2023-08-21T13:30:43;34.20;1.00
5459;DHT22;2752;49.992;8.422;2023-08-21T13:33:10;34.20;1.00
5459;DHT22;2752;49.992;8.422;2023-08-21T13:35:36;34.20;1.00
5459;DHT22;2752;49.992;8.422;2023-08-21T13:38:04;34.10;1.00
5459;DHT22;2752;49.992;8.422;2023-08-21T13:40:31;34.10;1.00
5459;DHT22;2752;49.992;8.422;2023-08-21T13:42:58;34.20;1.00
5459;DHT22;2752;49.992;8.422;2023-08-21T13:45:25;34.10;1.00
5459;DHT22;2752;49.992;8.422;2023-08-21T13:47:52;34.20;1.00
5459;DHT22;2752;49.992;8.422;2023-08-21T13:50:19;34.40;1.00
5459;DHT22;2752;49.992;8.422;2023-08-21T13:52:47;34.30;1.00
5459;DHT22;2752;49.992;8.422;2023-08-21T13:55:15;34.40;1.00
5459;DHT22;2752;49.992;8.422;2023-08-21T13:57:42;34.50;1.00
5459;DHT22;2752;49.992;8.422;2023-08-21T14:00:10;34.50;1.00
5459;DHT22;2752;49.992;8.422;2023-08-21T14:02:38;34.40;1.00
5459;DHT22;2752;49.992;8.422;2023-08-21T14:05:07;34.40;1.00
5459;DHT22;2752;49.992;8.422;2023-08-21T14:07:34;34.60;1.00
5459;DHT22;2752;49.992;8.422;2023-08-21T14:10:01;34.80;1.00
5459;DHT22;2752;49.992;8.422;2023-08-21T14:12:30;34.70;1.00
5459;DHT22;2752;49.992;8.422;2023-08-21T14:14:58;34.70;1.00
5459;DHT22;2752;49.992;8.422;2023-08-21T14:17:24;34.60;1.00
5459;DHT22;2752;49.992;8.422;2023-08-21T14:19:51;34.50;1.00
5459;DHT22;2752;49.992;8.422;2023-08-21T14:22:18;34.50;1.00
5459;DHT22;2752;49.992;8.422;2023-08-21T14:24:45;34.70;1.00
5459;DHT22;2752;49.992;8.422;2023-08-21T14:27:11;34.80;1.00
5459;DHT22;2752;49.992;8.422;2023-08-21T14:29:39;34.80;1.00
5459;DHT22;2752;49.992;8.422;2023-08-21T14:32:06;34.90;1.00
5459;DHT22;2752;49.992;8.422;2023-08-21T14:34:33;35.00;1.00
5459;DHT22;2752;49.992;8.422;2023-08-21T14:37:00;35.00;1.00
5459;DHT22;2752;49.992;8.422;2023-08-21T14:39:29;34.80;1.00
5459;DHT22;2752;49.992;8.422;2023-08-21T14:46:53;34.80;1.00
5459;DHT22;2752;49.992;8.422;2023-08-21T14:49:22;34.70;1.00
5459;DHT22;2752;49.992;8.422;2023-08-21T14:51:49;34.70;1.00
5459;DHT22;2752;49.992;8.422;2023-08-21T14:54:16;34.60;1.00
5459;DHT22;2752;49.992;8.422;2023-08-21T14:56:43;34.70;1.00
5459;DHT22;2752;49.992;8.422;2023-08-21T14:59:10;34.70;1.00
5459;DHT22;2752;49.992;8.422;2023-08-21T15:04:06;34.60;1.00
5459;DHT22;2752;49.992;8.422;2023-08-21T15:06:33;34.40;1.00
5459;DHT22;2752;49.992;8.422;2023-08-21T15:09:00;34.50;1.00
5459;DHT22;2752;49.992;8.422;2023-08-21T15:11:27;34.30;1.00
5459;DHT22;2752;49.992;8.422;2023-08-21T15:13:54;34.30;1.00
5459;DHT22;2752;49.992;8.422;2023-08-21T15:16:20;34.20;1.00
5459;DHT22;2752;49.992;8.422;2023-08-21T15:18:47;34.10;1.00
5459;DHT22;2752;49.992;8.422;2023-08-21T15:21:18;34.20;1.00
5459;DHT22;2752;49.992;8.422;2023-08-21T15:23:45;34.20;1.00
5459;DHT22;2752;49.992;8.422;2023-08-21T15:26:13;34.30;1.00
5459;DHT22;2752;49.992;8.422;2023-08-21T15:28:40;34.30;1.00
5459;DHT22;2752;49.992;8.422;2023-08-21T15:31:07;34.50;1.00
5459;DHT22;2752;49.992;8.422;2023-08-21T15:33:34;34.30;1.00
5459;DHT22;2752;49.992;8.422;2023-08-21T15:36:01;34.30;1.00
5459;DHT22;2752;49.992;8.422;2023-08-21T15:38:29;34.40;1.00
5459;DHT22;2752;49.992;8.422;2023-08-21T15:40:55;34.60;1.00
5459;DHT22;2752;49.992;8.422;2023-08-21T15:43:22;34.80;1.00
5459;DHT22;2752;49.992;8.422;2023-08-21T15:45:50;34.90;1.00
5459;DHT22;2752;49.992;8.422;2023-08-21T15:48:17;34.90;1.00
5459;DHT22;2752;49.992;8.422;2023-08-21T15:50:44;34.70;1.00
5459;DHT22;2752;49.992;8.422;2023-08-21T15:53:10;34.70;1.00
5459;DHT22;2752;49.992;8.422;2023-08-21T15:55:40;34.70;1.00
5459;DHT22;2752;49.992;8.422;2023-08-21T15:58:07;35.10;1.00
5459;DHT22;2752;49.992;8.422;2023-08-21T16:00:34;35.20;1.00
5459;DHT22;2752;49.992;8.422;2023-08-21T16:03:01;35.50;1.00
5459;DHT22;2752;49.992;8.422;2023-08-21T16:05:29;35.30;1.00
5459;DHT22;2752;49.992;8.422;2023-08-21T16:07:56;35.10;1.00
5459;DHT22;2752;49.992;8.422;2023-08-21T16:10:23;34.70;1.00
5459;DHT22;2752;49.992;8.422;2023-08-21T16:12:51;34.60;1.00
5459;DHT22;2752;49.992;8.422;2023-08-21T16:15:17;34.30;1.00
5459;DHT22;2752;49.992;8.422;2023-08-21T16:17:44;34.20;1.00
5459;DHT22;2752;49.992;8.422;2023-08-21T16:20:11;34.10;1.00
5459;DHT22;2752;49.992;8.422;2023-08-21T16:22:40;33.90;1.00
5459;DHT22;2752;49.992;8.422;2023-08-21T16:25:07;33.80;1.00
5459;DHT22;2752;49.992;8.422;2023-08-21T16:27:38;33.60;1.00
5459;DHT22;2752;49.992;8.422;2023-08-21T16:30:07;33.50;1.00
5459;DHT22;2752;49.992;8.422;2023-08-21T16:32:34;33.50;1.00
5459;DHT22;2752;49.992;8.422;2023-08-21T16:35:01;33.70;1.00
5459;DHT22;2752;49.992;8.422;2023-08-21T16:37:27;33.80;1.00
5459;DHT22;2752;49.992;8.422;2023-08-21T16:39:54;33.80;1.00
5459;DHT22;2752;49.992;8.422;2023-08-21T16:42:20;33.70;1.00
5459;DHT22;2752;49.992;8.422;2023-08-21T16:44:47;33.70;1.00
5459;DHT22;2752;49.992;8.422;2023-08-21T16:47:15;33.60;1.00
5459;DHT22;2752;49.992;8.422;2023-08-21T16:49:42;33.60;1.00
5459;DHT22;2752;49.992;8.422;2023-08-21T16:52:08;33.30;1.00
5459;DHT22;2752;49.992;8.422;2023-08-21T16:54:35;33.00;1.00
5459;DHT22;2752;49.992;8.422;2023-08-21T16:57:02;32.70;1.00
5459;DHT22;2752;49.992;8.422;2023-08-21T16:59:28;32.60;1.00
5459;DHT22;2752;49.992;8.422;2023-08-21T17:01:55;32.40;1.00
5459;DHT22;2752;49.992;8.422;2023-08-21T17:04:23;32.30;1.00
5459;DHT22;2752;49.992;8.422;2023-08-21T17:06:50;32.10;1.00
5459;DHT22;2752;49.992;8.422;2023-08-21T17:09:17;32.00;1.00